Time;durP1;ratioP1;P1;durP2;ratioP2;P2;SDS_P1;SDS_P2;PMS_P1;PMS_P2;Temp;Humidity;BMP_temperature;BMP_pressure;BME280_temperature;BME280_humidity;BME280_pressure;Samples;Min_cycle;Max_cycle;Signal;HPM_P1;HPM_P2
2022/05/20 00:01:37;;;;;;;16.52;8.38;;;282.10;2278.40;;;;;;5055816;28;20307;-85
2022/05/20 00:04:03;;;;;;;10.85;6.45;;;282.10;2278.40;;;;;;5056498;28;20016;-86
2022/05/20 00:06:29;;;;;;;11.70;7.82;;;282.10;2278.40;;;;;;5056465;28;20029;-86
2022/05/20 00:08:55;;;;;;;8.70;4.90;;;282.10;2278.40;;;;;;5059478;28;20029;-82
2022/05/20 00:11:20;;;;;;;7.47;4.35;;;282.10;2278.40;;;;;;5058251;28;20037;-81
2022/05/20 00:13:47;;;;;;;6.85;3.13;;;282.10;2278.40;;;;;;5055653;28;20021;-84
2022/05/20 00:16:12;;;;;;;7.57;3.50;;;282.10;2278.40;;;;;;5056983;28;20020;-86
2022/05/20 00:18:38;;;;;;;10.07;3.92;;;282.10;2278.40;;;;;;5054603;28;20392;-85
2022/05/20 00:21:04;;;;;;;9.63;4.30;;;282.10;2278.40;;;;;;5055997;28;20155;-84
2022/05/20 00:23:31;;;;;;;5.68;3.47;;;282.00;2278.40;;;;;;5057976;28;20036;-88
2022/05/20 00:25:56;;;;;;;14.93;5.50;;;282.00;2278.40;;;;;;5056273;28;20159;-86
2022/05/20 00:28:28;;;;;;;7.85;4.22;;;281.90;2278.40;;;;;;5055617;28;20076;-83
2022/05/20 00:30:57;;;;;;;5.00;3.42;;;282.00;2278.40;;;;;;5054676;28;20021;-83
2022/05/20 00:33:25;;;;;;;6.05;3.28;;;281.90;2278.40;;;;;;5054652;28;20027;-83
2022/05/20 00:35:51;;;;;;;13.93;9.75;;;281.90;2278.40;;;;;;5054756;28;20025;-85
2022/05/20 00:38:17;;;;;;;9.38;4.13;;;281.80;2278.40;;;;;;5054664;28;20043;-85
2022/05/20 00:40:45;;;;;;;10.93;5.50;;;281.60;2278.40;;;;;;5055030;28;20075;-86
2022/05/20 00:43:29;;;;;;;12.90;6.88;;;256.90;2252.80;;;;;;5054681;28;20025;-86
2022/05/20 00:45:59;;;;;;;20.35;12.43;;;256.90;2252.80;;;;;;5056106;28;20028;-84
2022/05/20 00:48:26;;;;;;;16.15;8.35;;;256.80;2252.80;;;;;;5054501;28;20091;-84
2022/05/20 00:51:15;;;;;;;10.77;4.28;;;256.80;2252.80;;;;;;5054592;28;20025;-81
2022/05/20 00:53:56;;;;;;;15.35;7.82;;;256.90;2252.80;;;;;;5054784;28;20025;-81
2022/05/20 00:56:28;;;;;;;6.97;4.50;;;256.80;2252.80;;;;;;5054433;28;20025;-83
2022/05/20 00:58:55;;;;;;;8.20;3.72;;;256.80;2252.80;;;;;;5053343;28;20037;-79
2022/05/20 01:01:22;;;;;;;6.03;4.03;;;256.80;2252.80;;;;;;5053062;28;20035;-77
2022/05/20 01:03:50;;;;;;;11.20;4.78;;;256.80;2252.80;;;;;;5052335;28;20534;-77
2022/05/20 01:06:16;;;;;;;12.23;5.32;;;256.90;2252.80;;;;;;5053024;28;20027;-78
2022/05/20 01:08:42;;;;;;;13.90;5.57;;;256.60;2252.80;;;;;;5053071;28;20041;-78
2022/05/20 01:11:08;;;;;;;19.58;7.20;;;256.60;2252.80;;;;;;5051801;28;20025;-78
2022/05/20 01:13:35;;;;;;;11.50;5.45;;;256.50;2252.80;;;;;;5052550;28;20028;-78
2022/05/20 01:16:04;;;;;;;8.10;4.57;;;256.30;2252.80;;;;;;5052637;28;20021;-78
2022/05/20 01:18:36;;;;;;;8.75;4.05;;;256.20;2252.80;;;;;;5052523;28;20065;-79
2022/05/20 01:21:01;;;;;;;9.02;4.47;;;256.20;2252.80;;;;;;5052714;28;20036;-79
2022/05/20 01:23:28;;;;;;;8.43;4.68;;;256.20;2252.80;;;;;;5052718;28;20029;-78
2022/05/20 01:25:57;;;;;;;9.35;3.85;;;256.20;2252.80;;;;;;5052709;28;20028;-78
2022/05/20 01:28:25;;;;;;;4.88;3.88;;;256.20;2252.80;;;;;;5052348;28;20053;-78
2022/05/20 01:30:58;;;;;;;5.43;3.22;;;256.20;2252.80;;;;;;5052581;28;20028;-78
2022/05/20 01:33:31;;;;;;;7.15;4.20;;;256.20;2252.80;;;;;;5052611;28;20052;-78
2022/05/20 01:35:58;;;;;;;9.00;3.38;;;256.10;2252.80;;;;;;5053470;28;20373;-78
2022/05/20 01:38:24;;;;;;;7.03;3.00;;;256.00;2252.80;;;;;;5053554;28;20040;-76
2022/05/20 01:40:56;;;;;;;8.93;4.55;;;256.10;2252.80;;;;;;5053747;28;20025;-76
2022/05/20 01:43:31;;;;;;;8.70;5.47;;;256.00;2252.80;;;;;;5052223;28;20484;-77
2022/05/20 01:46:10;;;;;;;6.72;4.10;;;256.00;2252.80;;;;;;5052422;28;20037;-77
2022/05/20 01:48:42;;;;;;;11.30;4.55;;;231.30;2252.80;;;;;;5052152;28;20075;-77
2022/05/20 01:51:12;;;;;;;8.90;4.82;;;231.30;2252.80;;;;;;5052069;28;20032;-76
2022/05/20 01:53:51;;;;;;;8.10;4.75;;;231.30;2252.80;;;;;;5052020;28;20029;-76
2022/05/20 01:56:29;;;;;;;8.75;4.57;;;231.20;2252.80;;;;;;5053287;28;20037;-76
2022/05/20 01:59:12;;;;;;;8.13;4.03;;;231.20;2252.80;;;;;;5053210;28;20033;-77
2022/05/20 02:01:51;;;;;;;8.73;4.60;;;231.20;2252.80;;;;;;5051888;28;20464;-76
2022/05/20 02:04:23;;;;;;;8.35;3.58;;;231.00;2252.80;;;;;;5053151;28;20466;-79
2022/05/20 02:06:57;;;;;;;8.13;4.25;;;231.00;2252.80;;;;;;5053089;28;20405;-77
2022/05/20 02:09:31;;;;;;;;;;;231.00;2252.80;;;;;;5053196;28;20025;-78
2022/05/20 02:11:57;;;;;;;9.50;3.55;;;231.10;2252.80;;;;;;5053117;28;20381;-78
2022/05/20 02:14:47;;;;;;;10.45;4.70;;;231.10;2252.80;;;;;;5051635;28;20025;-77
2022/05/20 02:17:22;;;;;;;6.43;3.03;;;231.00;2252.80;;;;;;5052731;28;20029;-77
2022/05/20 02:20:14;;;;;;;9.00;3.45;;;231.00;2252.80;;;;;;5052763;28;20029;-78
2022/05/20 02:22:46;;;;;;;9.20;4.00;;;231.00;2252.80;;;;;;5035667;28;20030;-76
2022/05/20 02:25:19;;;;;;;5.68;3.05;;;231.00;2252.80;;;;;;5032932;28;20025;-76
2022/05/20 02:27:50;;;;;;;6.93;2.95;;;230.80;2252.80;;;;;;5031227;28;20049;-77
2022/05/20 02:30:20;;;;;;;6.95;3.53;;;230.70;2252.80;;;;;;5032227;28;20021;-77
2022/05/20 02:32:54;;;;;;;5.75;3.28;;;;;;;;;;5032295;28;20056;-76
2022/05/20 02:35:21;;;;;;;10.05;4.13;;;;;;;;;;5032835;28;20128;-77
2022/05/20 02:37:47;;;;;;;5.07;3.70;;;;;;;;;;5031340;28;20029;-77
2022/05/20 02:40:15;;;;;;;6.78;4.10;;;230.70;2252.80;;;;;;5031229;28;20064;-77
2022/05/20 02:42:41;;;;;;;5.20;3.70;;;230.60;2252.80;;;;;;5031259;28;20025;-77
2022/05/20 02:45:08;;;;;;;6.78;4.32;;;230.60;2252.80;;;;;;5031355;28;20075;-78
2022/05/20 02:47:35;;;;;;;7.95;4.32;;;230.50;2252.80;;;;;;5032769;28;20025;-78
2022/05/20 02:50:11;;;;;;;8.80;4.93;;;230.60;2252.80;;;;;;5032647;28;20056;-77
2022/05/20 02:52:38;;;;;;;8.35;4.10;;;230.70;2252.80;;;;;;5032342;28;20044;-77
2022/05/20 02:55:06;;;;;;;11.70;3.53;;;230.70;2252.80;;;;;;5032325;28;20104;-77
2022/05/20 02:57:32;;;;;;;7.13;3.90;;;230.60;2252.80;;;;;;5032298;28;20026;-77
2022/05/20 03:05:26;;;;;;;14.32;4.43;;;230.50;2252.80;;;;;;5032148;28;20095;-77
2022/05/20 03:07:52;;;;;;;9.43;4.57;;;230.50;2252.80;;;;;;5032396;28;20029;-77
2022/05/20 03:10:17;;;;;;;10.60;3.90;;;230.40;2252.80;;;;;;5030858;28;20032;-77
2022/05/20 03:12:43;;;;;;;8.32;3.95;;;230.50;2252.80;;;;;;5030743;28;20460;-78
2022/05/20 03:15:12;;;;;;;6.82;4.00;;;230.60;2252.80;;;;;;5030782;28;20064;-78
2022/05/20 03:17:39;;;;;;;8.18;3.92;;;230.60;2252.80;;;;;;5031865;28;20026;-76
2022/05/20 03:20:08;;;;;;;10.68;3.75;;;230.70;2252.80;;;;;;5030536;28;20045;-77
2022/05/20 03:22:34;;;;;;;11.02;4.80;;;230.70;2252.80;;;;;;5030691;28;20022;-78
2022/05/20 03:25:04;;;;;;;9.43;4.95;;;230.80;2252.80;;;;;;5030208;28;20026;-77
2022/05/20 03:27:30;;;;;;;10.73;5.75;;;230.80;2252.80;;;;;;5030605;28;20049;-77
2022/05/20 03:29:56;;;;;;;9.32;4.80;;;230.80;2252.80;;;;;;5032006;28;20026;-77
2022/05/20 03:32:22;;;;;;;14.52;5.03;;;230.90;2252.80;;;;;;5030588;28;20079;-78
2022/05/20 03:34:47;;;;;;;11.15;4.32;;;230.70;2252.80;;;;;;5031907;28;20109;-77
2022/05/20 03:37:13;;;;;;;9.77;5.78;;;230.90;2252.80;;;;;;5030600;28;20025;-77
2022/05/20 03:39:39;;;;;;;10.95;4.95;;;230.90;2252.80;;;;;;5031260;28;20033;-78
2022/05/20 03:42:05;;;;;;;10.88;5.50;;;231.00;2252.80;;;;;;5030493;28;20037;-78
2022/05/20 03:44:32;;;;;;;10.73;5.43;;;231.00;2252.80;;;;;;5030496;28;20384;-77
2022/05/20 03:46:58;;;;;;;15.18;5.63;;;231.00;2252.80;;;;;;5030584;28;20183;-77
2022/05/20 03:49:27;;;;;;;16.50;5.60;;;231.10;2252.80;;;;;;5030437;28;20022;-77
2022/05/20 03:51:54;;;;;;;13.05;6.15;;;231.10;2252.80;;;;;;5030438;28;20044;-77
2022/05/20 03:54:22;;;;;;;10.18;6.00;;;231.20;2252.80;;;;;;5030382;28;20021;-77
2022/05/20 03:56:48;;;;;;;14.65;6.03;;;231.30;2252.80;;;;;;5030345;28;20029;-78
2022/05/20 03:59:14;;;;;;;10.98;5.60;;;231.30;2252.80;;;;;;5030292;28;20129;-77
2022/05/20 04:01:56;;;;;;;13.68;7.90;;;256.10;2252.80;;;;;;5030112;28;20032;-78
2022/05/20 04:04:43;;;;;;;21.02;6.72;;;256.10;2252.80;;;;;;5030224;28;20071;-79
2022/05/20 04:07:19;;;;;;;22.80;6.35;;;256.20;2252.80;;;;;;5029934;28;20033;-77
2022/05/20 04:09:45;;;;;;;13.07;6.10;;;256.30;2252.80;;;;;;5030288;28;20472;-77
2022/05/20 04:12:28;;;;;;;13.45;6.88;;;256.30;2252.80;;;;;;5031527;28;20025;-77
2022/05/20 04:14:55;;;;;;;11.20;4.20;;;256.20;2252.80;;;;;;5031464;28;20065;-79
2022/05/20 04:17:21;;;;;;;13.20;5.22;;;256.10;2252.80;;;;;;5030118;28;20075;-78
2022/05/20 04:19:47;;;;;;;19.75;6.85;;;256.30;2252.80;;;;;;5029900;28;20042;-78
2022/05/20 04:22:17;;;;;;;12.43;5.75;;;256.50;2252.80;;;;;;5030106;28;20362;-78
2022/05/20 04:24:44;;;;;;;6.70;4.53;;;256.60;2252.80;;;;;;5029998;28;20025;-77
2022/05/20 04:27:10;;;;;;;12.57;4.93;;;256.80;2252.80;;;;;;5031359;28;20062;-80
2022/05/20 04:29:36;;;;;;;8.60;4.38;;;256.70;2252.80;;;;;;5030176;28;20091;-78
2022/05/20 04:32:02;;;;;;;8.50;4.55;;;256.80;2252.80;;;;;;5031352;28;20588;-79
2022/05/20 04:34:28;;;;;;;20.15;5.22;;;281.60;2278.40;;;;;;5029943;28;20025;-78
2022/05/20 04:36:54;;;;;;;12.07;5.70;;;;;;;;;;5029932;28;20030;-78
2022/05/20 04:39:21;;;;;;;9.93;5.70;;;;;;;;;;5034744;28;20523;-78
2022/05/20 04:47:19;;;;;;;11.18;5.70;;;;;;;;;;5034730;28;20036;-78
2022/05/20 04:49:45;;;;;;;15.00;6.03;;;;;;;;;;5034911;28;20044;-79
2022/05/20 04:52:12;;;;;;;15.00;5.95;;;;;;;;;;5033459;28;20488;-79
2022/05/20 04:54:52;;;;;;;33.13;8.57;;;;;;;;;;5034636;28;20460;-78
2022/05/20 04:57:20;;;;;;;17.55;8.35;;;;;;;;;;5033152;28;20052;-77
2022/05/20 04:59:46;;;;;;;17.38;6.68;;;307.70;2304.00;;;;;;5034713;28;20527;-77
2022/05/20 05:02:13;;;;;;;10.70;5.85;;;307.70;2304.00;;;;;;5034473;28;20056;-78
2022/05/20 05:04:39;;;;;;;16.23;5.70;;;307.70;2304.00;;;;;;5033266;28;20055;-78
2022/05/20 05:07:09;;;;;;;12.50;4.97;;;307.80;2304.00;;;;;;5054225;28;20021;-78
2022/05/20 05:09:35;;;;;;;16.83;5.32;;;;;;;;;;5052864;28;20395;-78
2022/05/20 05:12:03;;;;;;;12.30;5.50;;;308.10;2304.00;;;;;;5052966;28;20583;-77
2022/05/20 05:14:29;;;;;;;12.05;4.78;;;308.10;2304.00;;;;;;5052935;28;20025;-78
2022/05/20 05:16:54;;;;;;;12.95;5.68;;;332.80;2329.60;;;;;;5053862;28;20021;-78
2022/05/20 05:19:20;;;;;;;10.77;6.00;;;332.90;2329.60;;;;;;5053960;28;20458;-78
2022/05/20 05:21:46;;;;;;;13.55;4.63;;;333.10;2329.60;;;;;;5048910;28;20049;-78
2022/05/20 05:24:12;;;;;;;14.90;5.45;;;333.20;2329.60;;;;;;5052518;28;20021;-77
2022/05/20 05:26:40;;;;;;;9.57;4.50;;;333.30;2329.60;;;;;;5046203;28;20025;-77
2022/05/20 05:29:06;;;;;;;12.55;6.10;;;333.20;2329.60;;;;;;5048946;28;20044;-77
2022/05/20 05:31:32;;;;;;;22.63;5.00;;;333.30;2329.60;;;;;;5072291;28;20021;-77
2022/05/20 05:33:58;;;;;;;12.73;5.20;;;333.10;2329.60;;;;;;5053193;28;20021;-79
2022/05/20 05:36:25;;;;;;;16.15;4.70;;;333.30;2329.60;;;;;;5052323;28;20392;-78
2022/05/20 05:38:51;;;;;;;19.38;6.60;;;333.50;2329.60;;;;;;5052405;28;20040;-78
2022/05/20 05:41:19;;;;;;;11.32;4.78;;;358.40;2329.60;;;;;;5085251;28;20032;-77
2022/05/20 05:43:44;;;;;;;9.68;4.45;;;358.40;2329.60;;;;;;5047132;28;20037;-79
2022/05/20 05:46:10;;;;;;;19.52;5.30;;;358.50;2329.60;;;;;;5052420;28;20024;-77
2022/05/20 05:48:36;;;;;;;11.90;5.90;;;358.70;2329.60;;;;;;5051056;28;20021;-77
2022/05/20 05:51:02;;;;;;;16.17;6.07;;;358.80;2329.60;;;;;;5052422;28;20029;-78
2022/05/20 05:53:28;;;;;;;17.80;5.47;;;359.00;2329.60;;;;;;5051234;28;20017;-78
2022/05/20 05:55:57;;;;;;;15.32;5.70;;;358.90;2329.60;;;;;;5052828;28;20048;-77
2022/05/20 05:58:22;;;;;;;13.50;5.07;;;359.20;2329.60;;;;;;5053204;28;20472;-77
2022/05/20 06:00:48;;;;;;;9.38;5.03;;;359.30;2329.60;;;;;;5049777;28;20025;-79
2022/05/20 06:03:16;;;;;;;15.60;5.40;;;359.10;2329.60;;;;;;5050628;28;20411;-78
2022/05/20 06:05:42;;;;;;;23.27;6.05;;;359.20;2329.60;;;;;;5051160;28;20021;-78
2022/05/20 06:08:08;;;;;;;16.52;6.88;;;384.00;2329.60;;;;;;5052195;28;20028;-78
2022/05/20 06:10:35;;;;;;;21.27;7.32;;;384.20;2329.60;;;;;;5051478;28;20040;-79
2022/05/20 06:13:01;;;;;;;19.80;7.30;;;384.40;2329.60;;;;;;5051502;28;20021;-80
2022/05/20 06:15:27;;;;;;;29.67;7.53;;;384.50;2329.60;;;;;;5051316;28;20477;-79
2022/05/20 06:17:54;;;;;;;23.48;7.93;;;384.60;2329.60;;;;;;5051217;28;20024;-79
2022/05/20 06:20:22;;;;;;;31.55;6.65;;;384.70;2329.60;;;;;;5051465;28;20468;-79
2022/05/20 06:22:49;;;;;;;26.27;7.05;;;384.50;2329.60;;;;;;5051085;28;20028;-79
2022/05/20 06:25:15;;;;;;;15.63;6.55;;;384.60;2329.60;;;;;;5050778;28;20021;-78
2022/05/20 06:27:41;;;;;;;14.48;5.50;;;384.70;2329.60;;;;;;5051372;28;20044;-78
2022/05/20 06:30:10;;;;;;;14.82;6.38;;;384.80;2329.60;;;;;;5050973;28;20036;-78
2022/05/20 06:32:36;;;;;;;19.48;6.57;;;409.60;2355.20;;;;;;5051128;28;20021;-79
2022/05/20 06:40:45;;;;;;;19.48;5.07;;;410.00;2355.20;;;;;;5043277;28;20399;-77
2022/05/20 06:43:19;;;;;;;17.48;5.35;;;410.30;2355.20;;;;;;5050570;28;20119;-79
2022/05/20 06:45:47;;;;;;;22.98;6.35;;;410.40;2355.20;;;;;;5049785;28;20055;-79
2022/05/20 06:48:13;;;;;;;20.98;6.60;;;410.40;2355.20;;;;;;5051339;28;20021;-80
2022/05/20 06:50:40;;;;;;;16.60;7.35;;;410.20;2355.20;;;;;;5046001;28;20040;-83
2022/05/20 06:53:07;;;;;;;12.30;6.88;;;410.30;2355.20;;;;;;5051244;28;20039;-81
2022/05/20 06:55:33;;;;;;;23.13;8.65;;;410.50;2355.20;;;;;;5050363;28;20044;-79
2022/05/20 06:58:00;;;;;;;16.75;8.75;;;435.30;2355.20;;;;;;5050543;28;20025;-83
2022/05/20 07:00:26;;;;;;;16.30;7.72;;;435.20;2278.40;;;;;;5049651;28;20029;-83
2022/05/20 07:02:51;;;;;;;12.35;9.07;;;435.50;2201.60;;;;;;5046921;28;20112;-80
2022/05/20 07:05:17;;;;;;;15.20;8.73;;;435.70;2176.00;;;;;;5049395;28;20123;-80
2022/05/20 07:07:43;;;;;;;14.98;8.27;;;435.70;2150.40;;;;;;5050942;28;20032;-80
2022/05/20 07:10:11;;;;;;;15.38;8.35;;;435.90;2048.00;;;;;;5050902;28;20099;-80
2022/05/20 07:12:37;;;;;;;10.63;5.38;;;436.10;2099.20;;;;;;5050023;28;20551;-81
2022/05/20 07:15:04;;;;;;;42.58;5.57;;;436.00;2150.40;;;;;;5050714;28;20116;-81
2022/05/20 07:17:31;;;;;;;13.48;5.07;;;436.10;2073.60;;;;;;5050036;28;20031;-79
2022/05/20 07:19:57;;;;;;;9.93;4.20;;;460.90;2073.60;;;;;;5051617;28;20067;-79
2022/05/20 07:22:23;;;;;;;16.40;5.53;;;461.00;2048.00;;;;;;5051150;28;20108;-79
2022/05/20 07:24:50;;;;;;;9.20;4.32;;;461.20;2099.20;;;;;;5049863;28;20093;-80
2022/05/20 07:27:16;;;;;;;17.02;6.45;;;461.20;1996.80;;;;;;5052105;28;20053;-80
2022/05/20 07:29:41;;;;;;;17.27;6.20;;;461.30;2048.00;;;;;;5051034;28;20074;-80
2022/05/20 07:32:08;;;;;;;25.20;6.28;;;461.50;1996.80;;;;;;5034940;28;20049;-80
2022/05/20 07:34:35;;;;;;;17.00;6.30;;;461.60;1971.20;;;;;;5050587;28;20490;-80
2022/05/20 07:37:01;;;;;;;17.75;6.32;;;486.40;1945.60;;;;;;5051839;28;20436;-79
2022/05/20 07:39:27;;;;;;;14.75;4.85;;;486.40;1920.00;;;;;;5051173;28;20114;-82
2022/05/20 07:41:52;;;;;;;12.25;3.95;;;486.70;1868.80;;;;;;5051234;28;20463;-81
2022/05/20 07:44:19;;;;;;;12.40;4.20;;;486.50;1868.80;;;;;;5052283;28;20036;-79
2022/05/20 07:46:45;;;;;;;13.40;3.92;;;486.50;1894.40;;;;;;5051102;28;20021;-80
2022/05/20 07:49:11;;;;;;;15.45;5.20;;;486.70;1843.20;;;;;;5052111;28;20092;-79
2022/05/20 07:51:40;;;;;;;19.40;5.32;;;486.80;1817.60;;;;;;5052339;28;20111;-79
2022/05/20 07:54:11;;;;;;;13.32;4.38;;;486.90;1817.60;;;;;;5052460;28;20025;-80
2022/05/20 07:56:39;;;;;;;12.10;5.10;;;487.00;1817.60;;;;;;5052352;28;20025;-80
2022/05/20 07:59:09;;;;;;;23.00;5.40;;;487.10;1817.60;;;;;;5050656;28;20033;-78
2022/05/20 08:01:37;;;;;;;13.65;4.35;;;487.20;1792.00;;;;;;5049576;28;20043;-79
2022/05/20 08:07:07;;;;;;;;;;;512.20;1740.80;;;;;;5052470;28;20490;-79
2022/05/20 08:09:33;;;;;;;30.55;5.78;;;512.20;1766.40;;;;;;5051814;28;19946;-78
2022/05/20 08:11:59;;;;;;;13.63;5.28;;;512.10;1792.00;;;;;;5052434;28;20060;-78
2022/05/20 08:14:26;;;;;;;19.42;5.13;;;512.20;1792.00;;;;;;5054422;28;20029;-79
2022/05/20 08:16:52;;;;;;;17.65;5.47;;;512.30;1740.80;;;;;;5054303;28;20044;-78
2022/05/20 08:19:19;;;;;;;16.95;5.07;;;512.40;1766.40;;;;;;5055515;28;20041;-76
2022/05/20 08:21:44;;;;;;;15.25;5.22;;;512.60;1766.40;;;;;;5054085;28;20602;-78
2022/05/20 08:24:10;;;;;;;21.75;6.13;;;512.80;1715.20;;;;;;5054178;28;20116;-80
2022/05/20 08:26:36;;;;;;;15.52;4.80;;;512.90;1740.80;;;;;;5053938;28;20070;-79
2022/05/20 08:29:03;;;;;;;12.52;4.75;;;537.80;1715.20;;;;;;5053168;28;20515;-78
2022/05/20 08:31:29;;;;;;;16.05;5.05;;;537.90;1715.20;;;;;;5054044;28;20036;-79
2022/05/20 08:33:55;;;;;;;11.80;4.88;;;538.00;1715.20;;;;;;5054050;28;20032;-79
2022/05/20 08:36:21;;;;;;;15.90;4.50;;;538.20;1689.60;;;;;;5053717;28;20025;-78
2022/05/20 08:38:48;;;;;;;7.55;4.47;;;538.40;1612.80;;;;;;5053054;28;20037;-78
2022/05/20 08:41:26;;;;;;;11.07;4.80;;;563.40;1587.20;;;;;;5052942;28;20025;-78
2022/05/20 08:43:51;;;;;;;11.15;5.10;;;563.20;1638.40;;;;;;5052903;28;20029;-77
2022/05/20 08:46:19;;;;;;;12.85;4.90;;;563.30;1638.40;;;;;;5052783;28;20029;-79
2022/05/20 08:48:49;;;;;;;8.45;5.00;;;563.40;1638.40;;;;;;5052976;28;20391;-78
2022/05/20 08:51:15;;;;;;;9.35;4.82;;;563.40;1638.40;;;;;;5053004;28;20079;-79
2022/05/20 08:53:44;;;;;;;8.45;3.95;;;;;;;;;;5054405;28;20384;-78
2022/05/20 08:56:16;;;;;;;7.93;4.07;;;;;;;;;;5054123;28;20106;-78
2022/05/20 08:58:47;;;;;;;13.25;4.18;;;;;;;;;;5053711;28;20067;-77
2022/05/20 09:01:13;;;;;;;10.60;4.30;;;;;;;;;;5053746;28;20027;-78
2022/05/20 09:03:39;;;;;;;10.30;4.28;;;588.80;1561.60;;;;;;5053125;28;20117;-78
2022/05/20 09:06:14;;;;;;;13.10;4.47;;;588.90;1561.60;;;;;;5054694;28;20056;-79
2022/05/20 09:08:40;;;;;;;9.23;3.53;;;564.00;1587.20;;;;;;5052923;28;20033;-78
2022/05/20 09:11:13;;;;;;;13.52;4.65;;;564.10;1561.60;;;;;;5053317;28;20083;-77
2022/05/20 09:16:28;;;;;;;11.82;4.75;;;589.10;1612.80;;;;;;5054606;28;20483;-78
2022/05/20 09:19:05;;;;;;;7.15;4.13;;;589.30;1536.00;;;;;;5054350;28;20476;-78
2022/05/20 09:21:58;;;;;;;11.10;3.70;;;589.40;1587.20;;;;;;5054560;28;20097;-80
2022/05/20 09:24:24;;;;;;;13.13;3.93;;;589.30;1587.20;;;;;;5051997;28;20029;-77
2022/05/20 09:27:00;;;;;;;7.28;3.80;;;589.30;1587.20;;;;;;5053904;28;20076;-77
2022/05/20 09:30:07;;;;;;;11.45;3.30;;;589.30;1561.60;;;;;;5052705;28;20033;-76
2022/05/20 09:33:00;;;;;;;8.65;4.10;;;589.50;1587.20;;;;;;5051515;28;20043;-77
2022/05/20 09:35:33;;;;;;;9.30;4.15;;;614.40;1510.40;;;;;;5049847;28;20037;-77
2022/05/20 09:38:07;;;;;;;6.47;3.67;;;614.70;1510.40;;;;;;5053906;28;20029;-79
2022/05/20 09:40:47;;;;;;;17.58;4.13;;;614.70;1510.40;;;;;;5054441;28;20394;-78
2022/05/20 09:43:41;;;;;;;7.88;3.38;;;614.80;1536.00;;;;;;5052320;28;20032;-79
2022/05/20 09:46:30;;;;;;;12.25;4.68;;;615.00;1484.80;;;;;;5053199;28;20048;-78
2022/05/20 09:49:05;;;;;;;10.75;3.80;;;615.00;1484.80;;;;;;5052229;28;20056;-77
2022/05/20 09:51:49;;;;;;;14.98;4.03;;;615.10;1433.60;;;;;;5053579;28;20443;-79
2022/05/20 09:54:23;;;;;;;11.68;3.42;;;615.10;1459.20;;;;;;5053391;28;20035;-79
2022/05/20 09:57:03;;;;;;;9.80;3.78;;;615.20;1433.60;;;;;;5053086;28;20100;-78
2022/05/20 09:59:56;;;;;;;6.82;3.42;;;640.10;1433.60;;;;;;5052015;28;20044;-80
2022/05/20 10:02:30;;;;;;;7.13;2.97;;;640.00;1433.60;;;;;;5052001;28;20028;-77
2022/05/20 10:04:56;;;;;;;12.65;3.53;;;640.30;1433.60;;;;;;5051935;28;20523;-78
2022/05/20 10:07:52;;;;;;;14.45;3.85;;;640.40;1408.00;;;;;;5053311;28;20103;-76
2022/05/20 10:10:37;;;;;;;9.05;3.85;;;640.50;1408.00;;;;;;5051807;28;20510;-77
2022/05/20 10:13:07;;;;;;;11.35;2.95;;;640.60;1408.00;;;;;;5051821;28;20071;-78
2022/05/20 10:15:43;;;;;;;10.23;3.75;;;640.90;1433.60;;;;;;5053052;28;20476;-78
2022/05/20 10:18:19;;;;;;;7.50;3.90;;;;;;;;;;5052787;28;20048;-77
2022/05/20 10:20:55;;;;;;;8.50;3.47;;;666.00;1408.00;;;;;;5052791;28;20387;-77
2022/05/20 10:23:25;;;;;;;8.38;4.22;;;666.00;1305.60;;;;;;5051410;28;20021;-77
2022/05/20 10:26:18;;;;;;;16.40;3.60;;;666.10;1356.80;;;;;;5051203;28;20472;-76
2022/05/20 10:32:36;;;;;;;9.55;3.00;;;666.10;1305.60;;;;;;5052475;28;20458;-79
2022/05/20 10:35:10;;;;;;;7.55;3.50;;;666.20;1356.80;;;;;;5048454;28;20044;-78
2022/05/20 10:37:39;;;;;;;11.27;3.03;;;666.10;1382.40;;;;;;5052609;28;20029;-79
2022/05/20 10:40:35;;;;;;;8.73;3.10;;;666.40;1356.80;;;;;;5050870;28;20233;-76
2022/05/20 10:43:04;;;;;;;10.68;3.05;;;666.30;1280.00;;;;;;5051094;28;20029;-79
2022/05/20 10:48:49;;;;;;;7.97;3.60;;;665.70;1280.00;;;;;;5052663;28;20048;-77
2022/05/20 10:51:15;;;;;;;7.13;2.85;;;;;;;;;;5051024;28;20034;-79
2022/05/20 10:53:50;;;;;;;8.40;3.13;;;;;;;;;;5050980;28;20044;-77
2022/05/20 10:56:34;;;;;;;5.85;3.70;;;691.50;1203.20;;;;;;5052540;28;20025;-76
2022/05/20 10:59:21;;;;;;;8.68;2.67;;;691.50;1152.00;;;;;;5052456;28;20090;-77
2022/05/20 11:02:05;;;;;;;10.63;3.20;;;;;;;;;;5050893;28;20129;-78
2022/05/20 11:05:08;;;;;;;9.35;3.25;;;692.10;1049.60;;;;;;5051167;28;20044;-76
2022/05/20 11:08:01;;;;;;;6.80;2.83;;;691.80;1024.00;;;;;;5052438;28;20032;-76
2022/05/20 11:10:58;;;;;;;6.40;3.35;;;692.10;998.40;;;;;;5052004;28;20501;-78
2022/05/20 11:13:45;;;;;;;10.57;3.28;;;691.90;1024.00;;;;;;5050432;28;20047;-77
2022/05/20 11:16:32;;;;;;;10.55;3.40;;;691.60;1024.00;;;;;;5051999;28;20029;-78
2022/05/20 11:19:01;;;;;;;6.78;3.10;;;691.60;1049.60;;;;;;5050689;28;20120;-76
2022/05/20 11:21:48;;;;;;;6.85;3.03;;;691.50;998.40;;;;;;5051576;28;20606;-81
2022/05/20 11:24:17;;;;;;;10.75;3.45;;;691.60;998.40;;;;;;5052441;28;20104;-78
2022/05/20 11:27:01;;;;;;;7.22;2.97;;;716.90;1049.60;;;;;;5051571;28;20025;-79
2022/05/20 11:29:42;;;;;;;13.52;3.85;;;717.70;998.40;;;;;;5050287;28;20131;-77
2022/05/20 11:32:11;;;;;;;7.45;3.40;;;717.60;998.40;;;;;;5051530;28;20044;-77
2022/05/20 11:35:04;;;;;;;13.15;3.70;;;717.50;1024.00;;;;;;5050010;28;20032;-80
2022/05/20 11:37:46;;;;;;;;;;;742.70;1024.00;;;;;;5051002;28;20079;-78
2022/05/20 11:40:28;;;;;;;8.65;3.22;;;742.80;998.40;;;;;;5051334;28;20287;-75
2022/05/20 11:43:33;;;;;;;14.00;4.47;;;743.00;972.80;;;;;;5052140;28;20498;-77
2022/05/20 11:46:10;;;;;;;9.57;2.78;;;743.10;947.20;;;;;;5052218;28;20032;-75
2022/05/20 11:48:48;;;;;;;6.13;2.97;;;742.90;947.20;;;;;;5055865;28;20503;-77
2022/05/20 11:51:49;;;;;;;8.15;3.30;;;717.70;947.20;;;;;;5055864;28;20395;-76
2022/05/20 11:54:32;;;;;;;6.25;3.08;;;717.50;947.20;;;;;;5054472;28;20112;-77
2022/05/20 11:57:03;;;;;;;7.10;2.78;;;742.50;947.20;;;;;;5055419;28;20040;-77
2022/05/20 12:00:07;;;;;;;8.02;2.92;;;742.50;947.20;;;;;;5055533;28;20048;-79
2022/05/20 12:02:55;;;;;;;4.75;3.03;;;742.70;947.20;;;;;;5055114;28;20028;-77
2022/05/20 12:05:24;;;;;;;6.43;2.55;;;743.20;896.00;;;;;;5055567;28;20021;-79
2022/05/20 12:07:50;;;;;;;10.18;2.92;;;742.70;844.80;;;;;;5055128;28;20049;-79
2022/05/20 12:10:31;;;;;;;15.23;2.72;;;742.50;896.00;;;;;;5055307;28;20468;-80
2022/05/20 12:13:15;;;;;;;7.38;2.63;;;742.70;870.40;;;;;;5053757;28;20029;-78
2022/05/20 12:16:09;;;;;;;7.22;2.42;;;717.70;844.80;;;;;;5054111;28;20530;-77
2022/05/20 12:24:44;;;;;;;7.50;2.07;;;768.10;844.80;;;;;;5054634;28;20044;-77
2022/05/20 12:27:30;;;;;;;10.98;2.63;;;;;;;;;;5054581;28;20256;-77
2022/05/20 12:30:08;;;;;;;4.95;2.30;;;768.30;819.20;;;;;;5053025;28;20017;-78
2022/05/20 12:32:36;;;;;;;6.93;2.85;;;743.30;844.80;;;;;;5053819;28;20127;-76
2022/05/20 12:35:19;;;;;;;7.97;2.60;;;743.20;844.80;;;;;;5055194;28;20028;-77
2022/05/20 12:37:50;;;;;;;3.53;2.03;;;768.40;793.60;;;;;;5053799;28;20036;-77
2022/05/20 12:40:28;;;;;;;8.88;2.33;;;768.60;768.00;;;;;;5053438;28;20511;-77
2022/05/20 12:43:03;;;;;;;2.65;1.83;;;768.10;793.60;;;;;;5054310;28;20029;-77
2022/05/20 12:45:47;;;;;;;3.95;2.30;;;768.10;793.60;;;;;;5054684;28;20029;-79
2022/05/20 12:48:14;;;;;;;7.45;3.03;;;819.50;742.40;;;;;;5053422;28;20383;-79
2022/05/20 12:50:40;;;;;;;4.55;2.40;;;845.50;742.40;;;;;;5053412;28;20029;-79
2022/05/20 12:53:11;;;;;;;6.32;3.08;;;819.50;742.40;;;;;;5053466;28;20036;-76
2022/05/20 12:55:43;;;;;;;;;;;844.80;768.00;;;;;;5054703;28;20074;-79
2022/05/20 12:58:13;;;;;;;4.22;2.30;;;845.60;742.40;;;;;;5053104;28;19956;-79
2022/05/20 13:00:44;;;;;;;3.45;2.20;;;896.10;691.20;;;;;;5053910;28;20097;-76
2022/05/20 13:03:38;;;;;;;5.97;2.38;;;845.60;742.40;;;;;;5054142;28;20021;-76
2022/05/20 13:06:10;;;;;;;6.47;2.50;;;845.40;793.60;;;;;;5054238;28;20079;-76
2022/05/20 13:08:48;;;;;;;6.15;2.58;;;871.20;742.40;;;;;;5053932;28;20040;-77
2022/05/20 13:11:16;;;;;;;6.65;2.60;;;896.50;742.40;;;;;;5054459;28;20058;-75
2022/05/20 13:13:43;;;;;;;5.00;2.60;;;896.80;716.80;;;;;;5052884;28;20025;-77
2022/05/20 13:16:11;;;;;;;4.93;2.25;;;922.10;716.80;;;;;;5054146;28;20032;-76
2022/05/20 13:18:40;;;;;;;4.70;3.65;;;921.90;691.20;;;;;;5052669;28;20089;-77
2022/05/20 13:21:16;;;;;;;4.57;3.42;;;947.60;640.00;;;;;;5054215;28;20083;-76